Time;durP1;ratioP1;P1;durP2;ratioP2;P2;SDS_P1;SDS_P2;PMS_P1;PMS_P2;Temp;Humidity;BMP_temperature;BMP_pressure;BME280_temperature;BME280_humidity;BME280_pressure;Samples;Min_cycle;Max_cycle;Signal;HPM_P1;HPM_P2
2024/03/31 00:01:03;;;;;;;21.67;8.63;;;;;;;11.18;100.00;99715.19;6247931;23;20041;-79
2024/03/31 00:04:04;;;;;;;20.13;9.15;;;;;;;11.14;100.00;99708.47;6268339;28;20075;-79
2024/03/31 00:07:06;;;;;;;16.70;7.70;;;;;;;11.07;100.00;99709.84;6274647;28;20045;-79
2024/03/31 00:10:07;;;;;;;17.30;7.93;;;;;;;11.01;100.00;99709.47;6274625;28;20049;-79
2024/03/31 00:13:08;;;;;;;15.15;8.35;;;;;;;10.93;100.00;99695.06;6250606;28;20050;-79
2024/03/31 00:16:09;;;;;;;20.52;8.25;;;;;;;10.84;100.00;99695.72;6249740;28;20069;-79
2024/03/31 00:19:09;;;;;;;17.75;8.57;;;;;;;10.80;100.00;99714.44;6252875;28;20339;-79
2024/03/31 00:22:12;;;;;;;14.02;7.95;;;;;;;10.79;100.00;99707.53;6254587;28;20054;-79
2024/03/31 00:25:13;;;;;;;17.77;7.20;;;;;;;10.78;100.00;99727.69;6254596;28;20453;-79
2024/03/31 00:28:14;;;;;;;20.30;7.85;;;;;;;10.73;100.00;99721.94;6254302;28;20049;-79
2024/03/31 00:31:16;;;;;;;19.48;8.38;;;;;;;10.68;100.00;99716.16;6254281;28;20045;-79
2024/03/31 00:34:16;;;;;;;19.92;8.18;;;;;;;10.67;100.00;99709.22;6247742;28;20050;-79
2024/03/31 00:37:19;;;;;;;25.33;7.80;;;;;;;10.61;100.00;99714.91;6252989;28;20046;-79
2024/03/31 00:40:19;;;;;;;16.13;8.65;;;;;;;10.56;100.00;99714.38;6245900;28;20041;-79
2024/03/31 00:43:21;;;;;;;25.05;8.35;;;;;;;10.51;100.00;99719.13;6248460;28;20430;-79
2024/03/31 00:46:21;;;;;;;25.13;8.82;;;;;;;10.47;100.00;99715.03;6245911;28;20038;-80
2024/03/31 00:49:22;;;;;;;21.00;8.80;;;;;;;10.46;100.00;99708.94;6254095;28;20052;-79
2024/03/31 00:52:24;;;;;;;23.98;9.20;;;;;;;10.41;100.00;99719.75;6245852;28;20045;-79
2024/03/31 00:55:25;;;;;;;18.33;8.55;;;;;;;10.35;100.00;99711.44;6245715;28;20349;-79
2024/03/31 00:58:28;;;;;;;20.88;8.75;;;;;;;10.35;100.00;99711.44;6245835;28;20049;-79
2024/03/31 01:01:29;;;;;;;18.33;9.02;;;;;;;10.29;100.00;99707.47;6246049;28;20042;-79
2024/03/31 01:04:30;;;;;;;19.73;8.13;;;;;;;10.30;100.00;99709.16;6246105;28;20052;-79
2024/03/31 01:07:32;;;;;;;19.92;7.53;;;;;;;10.21;100.00;99696.63;6253583;28;20041;-80
2024/03/31 01:10:33;;;;;;;14.85;8.48;;;;;;;10.17;100.00;99708.28;6253783;28;20128;-79
2024/03/31 01:13:34;;;;;;;21.35;9.73;;;;;;;10.17;100.00;99700.41;6253445;28;20045;-79
2024/03/31 01:16:35;;;;;;;22.58;9.65;;;;;;;10.13;100.00;99709.44;6245461;28;20048;-79
2024/03/31 01:19:36;;;;;;;20.63;9.75;;;;;;;10.12;100.00;99711.22;6253226;28;20072;-79
2024/03/31 01:22:41;;;;;;;19.48;8.23;;;;;;;10.18;100.00;99712.59;6245162;28;20057;-79
2024/03/31 01:25:44;;;;;;;25.00;8.15;;;;;;;10.20;100.00;99709.84;6253353;28;20038;-79
2024/03/31 01:28:44;;;;;;;22.27;9.77;;;;;;;10.15;100.00;99705.75;6252971;28;20060;-79
2024/03/31 01:31:46;;;;;;;23.48;10.02;;;;;;;10.11;100.00;99729.69;6252171;28;20057;-79
2024/03/31 01:34:47;;;;;;;20.83;9.35;;;;;;;10.07;100.00;99723.81;6250516;28;20052;-79
2024/03/31 01:37:48;;;;;;;20.67;10.20;;;;;;;10.06;100.00;99727.38;6238978;28;20374;-79
2024/03/31 01:40:51;;;;;;;25.15;10.60;;;;;;;10.09;100.00;99728.97;6249365;28;20057;-79
2024/03/31 01:43:52;;;;;;;22.05;10.35;;;;;;;10.10;100.00;99730.66;6247767;28;20057;-80
2024/03/31 01:46:53;;;;;;;20.02;10.30;;;;;;;10.07;100.00;99725.59;6252532;28;20042;-79
2024/03/31 01:49:54;;;;;;;23.25;8.48;;;;;;;10.05;100.00;99738.84;6253147;28;20358;-79
2024/03/31 01:52:55;;;;;;;22.92;9.27;;;;;;;10.03;100.00;99737.25;6251520;28;20050;-79
2024/03/31 01:55:57;;;;;;;19.52;8.77;;;;;;;10.00;100.00;99734.84;6248039;28;20052;-79
2024/03/31 01:58:58;;;;;;;26.58;10.13;;;;;;;9.89;100.00;99728.50;6252388;28;20136;-79
2024/03/31 02:02:00;;;;;;;18.95;9.48;;;;;;;9.91;100.00;99733.69;6251984;28;20099;-80
2024/03/31 02:05:00;;;;;;;21.35;9.27;;;;;;;9.91;100.00;99738.94;6240714;28;20446;-79
2024/03/31 02:08:01;;;;;;;23.35;10.02;;;;;;;9.94;100.00;99738.69;6248427;28;20049;-79
2024/03/31 02:11:03;;;;;;;21.08;9.70;;;;;;;9.90;100.00;99738.09;6252218;28;20046;-79
2024/03/31 02:14:04;;;;;;;22.85;9.43;;;;;;;9.89;100.00;99733.75;6243935;28;20076;-79
2024/03/31 02:17:05;;;;;;;20.30;9.18;;;;;;;9.87;100.00;99724.31;6252236;28;20046;-79
2024/03/31 02:20:09;;;;;;;24.05;9.10;;;;;;;9.82;100.00;99727.25;6243622;28;20476;-79
2024/03/31 02:23:11;;;;;;;23.67;10.20;;;;;;;9.77;100.00;99731.97;6250602;28;20055;-79
2024/03/31 02:26:13;;;;;;;25.23;11.77;;;;;;;9.79;100.00;99729.22;6243663;28;20049;-79
2024/03/31 02:29:14;;;;;;;28.73;12.13;;;;;;;9.78;100.00;99728.41;6251992;28;20078;-79
2024/03/31 02:32:15;;;;;;;27.98;11.20;;;;;;;9.79;100.00;99731.84;6251732;28;20049;-79
2024/03/31 02:35:16;;;;;;;22.45;10.68;;;;;;;9.82;100.00;99729.88;6251541;28;20080;-79
2024/03/31 02:38:16;;;;;;;28.23;12.02;;;;;;;9.83;100.00;99734.19;6236675;28;20045;-79
2024/03/31 02:41:19;;;;;;;34.65;16.55;;;;;;;9.83;100.00;99730.72;6249035;28;20045;-78
2024/03/31 02:44:19;;;;;;;42.25;16.10;;;;;;;9.85;100.00;99740.16;6243358;28;20476;-79
2024/03/31 02:47:21;;;;;;;35.25;17.08;;;;;;;9.92;100.00;99727.47;6251194;28;20046;-79
2024/03/31 02:50:22;;;;;;;37.75;17.27;;;;;;;9.93;100.00;99723.06;6244351;28;20057;-79
2024/03/31 02:53:22;;;;;;;40.75;18.73;;;;;;;9.94;100.00;99735.25;6243183;28;20053;-79
2024/03/31 02:56:25;;;;;;;35.58;16.40;;;;;;;9.96;100.00;99733.38;6250854;28;20041;-79
2024/03/31 02:59:25;;;;;;;43.85;18.98;;;;;;;9.92;100.00;99732.72;6251460;28;20056;-78
2024/03/31 03:02:27;;;;;;;32.00;16.75;;;;;;;9.90;100.00;99726.72;6246616;28;20049;-79
2024/03/31 03:05:27;;;;;;;36.25;16.20;;;;;;;9.89;100.00;99725.06;6250245;28;20037;-79
2024/03/31 03:08:29;;;;;;;32.63;15.93;;;;;;;9.83;100.00;99726.31;6235526;28;20469;-79
2024/03/31 03:11:30;;;;;;;38.08;16.42;;;;;;;9.82;100.00;99726.41;6250480;28;20343;-79
2024/03/31 03:14:32;;;;;;;34.50;17.45;;;;;;;9.85;100.00;99732.28;6250923;28;20135;-78
2024/03/31 03:17:32;;;;;;;44.70;18.10;;;;;;;9.82;100.00;99729.88;6239633;28;20052;-79
2024/03/31 03:20:37;;;;;;;36.63;15.55;;;;;;;9.82;100.00;99734.28;6250453;28;20045;-79
2024/03/31 03:23:38;;;;;;;35.50;16.67;;;;;;;9.83;100.00;99726.31;6250912;28;20450;-78
2024/03/31 03:26:40;;;;;;;35.17;16.88;;;;;;;9.81;100.00;99725.59;6249692;28;20095;-79
2024/03/31 03:29:42;;;;;;;33.33;16.25;;;;;;;9.80;100.00;99731.75;6235471;28;20045;-79
2024/03/31 03:32:42;;;;;;;33.25;16.48;;;;;;;9.77;100.00;99724.09;6250227;28;20051;-79
2024/03/31 03:35:44;;;;;;;41.00;17.63;;;;;;;9.75;100.00;99733.84;6250427;28;20045;-79
2024/03/31 03:38:47;;;;;;;33.40;16.05;;;;;;;9.79;100.00;99732.69;6250538;28;20057;-79
2024/03/31 03:41:49;;;;;;;39.13;18.23;;;;;;;9.76;100.00;99734.69;6243794;28;20057;-79
2024/03/31 03:44:51;;;;;;;33.20;15.02;;;;;;;9.75;100.00;99736.47;6250457;28;20041;-79
2024/03/31 03:47:51;;;;;;;31.40;16.45;;;;;;;9.75;100.00;99733.84;6250330;28;20045;-79
2024/03/31 03:50:52;;;;;;;29.83;15.00;;;;;;;9.74;100.00;99734.78;6250187;28;20458;-79
2024/03/31 03:53:54;;;;;;;29.30;14.45;;;;;;;9.76;100.00;99738.13;6252940;28;20041;-79
2024/03/31 03:56:56;;;;;;;31.48;15.10;;;;;;;9.74;100.00;99753.16;6255252;28;20041;-79
2024/03/31 03:59:57;;;;;;;32.65;15.65;;;;;;;9.70;100.00;99746.41;6255195;28;20366;-79
2024/03/31 04:02:58;;;;;;;35.58;17.15;;;;;;;9.73;100.00;99756.72;6255107;28;20056;-78
2024/03/31 04:05:59;;;;;;;29.80;14.80;;;;;;;9.75;100.00;99760.06;6254454;28;20069;-78
2024/03/31 04:09:00;;;;;;;30.25;14.05;;;;;;;9.78;100.00;99756.44;6241771;28;20049;-79
2024/03/31 04:12:02;;;;;;;32.00;15.57;;;;;;;9.80;100.00;99754.53;6254767;28;20045;-80
2024/03/31 04:15:04;;;;;;;34.05;15.10;;;;;;;9.78;100.00;99765.13;6240499;28;20349;-78
2024/03/31 04:18:05;;;;;;;32.63;14.32;;;;;;;9.80;100.00;99771.09;6254918;28;20045;-80
2024/03/31 04:21:07;;;;;;;33.38;14.48;;;;;;;9.73;100.00;99759.34;6246839;28;20064;-79
2024/03/31 04:24:09;;;;;;;36.35;16.42;;;;;;;9.77;100.00;99758.22;6250213;28;20054;-79
2024/03/31 04:27:10;;;;;;;35.80;16.13;;;;;;;9.80;100.00;99763.22;6243129;28;20046;-77
2024/03/31 04:30:12;;;;;;;36.78;16.48;;;;;;;9.83;100.00;99759.59;6254345;28;20049;-78
2024/03/31 04:33:12;;;;;;;35.22;16.13;;;;;;;9.83;100.00;99751.72;6254544;28;20116;-79
2024/03/31 04:36:14;;;;;;;34.97;17.42;;;;;;;9.83;100.00;99757.78;6246414;28;20422;-80
2024/03/31 04:39:15;;;;;;;35.67;16.55;;;;;;;9.83;100.00;99759.59;6254367;28;20350;-78
2024/03/31 04:42:18;;;;;;;34.17;17.80;;;;;;;9.79;100.00;99763.34;6240091;28;20057;-77
2024/03/31 04:45:19;;;;;;;36.90;17.17;;;;;;;9.76;100.00;99761.75;6237453;28;20453;-78
2024/03/31 04:48:20;;;;;;;34.35;16.85;;;;;;;9.80;100.00;99759.78;6245960;28;20054;-79
2024/03/31 04:51:21;;;;;;;42.42;18.95;;;;;;;9.82;100.00;99761.38;6246540;28;20374;-79
2024/03/31 04:54:21;;;;;;;39.70;18.17;;;;;;;9.81;100.00;99750.94;6232919;28;20042;-79
2024/03/31 04:57:24;;;;;;;35.72;18.00;;;;;;;9.86;100.00;99751.53;6239182;28;20353;-80
2024/03/31 05:00:25;;;;;;;36.90;19.85;;;;;;;9.86;100.00;99751.53;6244571;28;20346;-79
2024/03/31 05:03:26;;;;;;;38.63;17.85;;;;;;;9.84;100.00;99756.84;6237321;28;20052;-81
2024/03/31 05:06:27;;;;;;;51.40;22.67;;;;;;;9.85;100.00;99757.69;6241441;28;20038;-80
2024/03/31 05:09:31;;;;;;;37.53;19.05;;;;;;;9.89;100.00;99754.75;6248974;28;20052;-78
2024/03/31 05:12:34;;;;;;;46.60;22.77;;;;;;;9.91;100.00;99755.50;6245348;28;20052;-81
2024/03/31 05:15:35;;;;;;;45.45;23.05;;;;;;;9.94;100.00;99753.59;6237423;28;20045;-80
2024/03/31 05:18:36;;;;;;;60.03;26.45;;;;;;;9.92;100.00;99753.72;6246502;28;20053;-80
2024/03/31 05:21:38;;;;;;;52.17;25.60;;;;;;;10.01;100.00;99752.28;6253077;28;20052;-80
2024/03/31 05:24:38;;;;;;;76.00;35.50;;;;;;;10.00;100.00;99751.44;6253747;28;20060;-80
2024/03/31 05:27:41;;;;;;;72.88;34.72;;;;;;;10.02;100.00;99748.69;6253137;28;20398;-81
2024/03/31 05:30:41;;;;;;;86.85;40.30;;;;;;;10.04;100.00;99750.28;6253390;28;20054;-78
2024/03/31 05:33:42;;;;;;;83.95;39.33;;;;;;;10.08;100.00;99743.88;6253183;28;20054;-78
2024/03/31 05:36:43;;;;;;;87.75;39.22;;;;;;;10.07;100.00;99754.47;6252970;28;20041;-78
2024/03/31 05:39:44;;;;;;;75.47;38.38;;;;;;;10.08;100.00;99754.41;6249713;28;20060;-79
2024/03/31 05:42:46;;;;;;;83.35;39.83;;;;;;;10.10;100.00;99747.25;6252746;28;20434;-80
2024/03/31 05:45:47;;;;;;;74.32;36.85;;;;;;;10.10;100.00;99747.25;6252843;28;20054;-80
2024/03/31 05:48:47;;;;;;;81.90;37.72;;;;;;;10.12;100.00;99747.13;6245493;28;20046;-80
2024/03/31 05:51:49;;;;;;;87.35;41.47;;;;;;;10.12;100.00;99747.13;6252466;28;20446;-81
2024/03/31 05:54:49;;;;;;;68.97;34.15;;;;;;;10.14;100.00;99750.50;6252858;28;20357;-82
2024/03/31 05:57:52;;;;;;;70.97;35.58;;;;;;;10.03;100.00;99750.38;6252820;28;20049;-81
2024/03/31 06:00:52;;;;;;;71.28;36.10;;;;;;;10.04;100.00;99742.41;6247202;28;20057;-81
2024/03/31 06:03:54;;;;;;;65.63;35.20;;;;;;;9.98;100.00;99748.06;6250388;28;20084;-81
2024/03/31 06:06:54;;;;;;;74.85;35.25;;;;;;;10.04;100.00;99738.94;6249280;28;20066;-79
2024/03/31 06:09:55;;;;;;;69.25;34.67;;;;;;;10.04;100.00;99733.69;6252337;28;20125;-79
2024/03/31 06:12:58;;;;;;;64.50;32.38;;;;;;;10.08;100.00;99719.41;6244677;28;20049;-81
2024/03/31 06:15:59;;;;;;;69.80;33.90;;;;;;;10.04;100.00;99710.91;6252027;28;20038;-80
2024/03/31 06:19:00;;;;;;;71.10;32.75;;;;;;;9.84;100.00;99712.25;6252294;28;20049;-81
2024/03/31 06:22:02;;;;;;;68.45;33.20;;;;;;;9.84;100.00;99719.28;6227553;28;20354;-82
2024/03/31 06:25:02;;;;;;;81.30;34.55;;;;;;;9.75;100.00;99725.13;6219120;28;20046;-82
2024/03/31 06:28:05;;;;;;;72.47;33.88;;;;;;;9.76;100.00;99738.13;6226131;28;20339;-80
2024/03/31 06:31:07;;;;;;;67.03;32.83;;;;;;;9.81;100.00;99737.84;6227132;28;20351;-82
2024/03/31 06:34:08;;;;;;;75.55;34.20;;;;;;;9.79;100.00;99740.56;6228654;28;20396;-83
2024/03/31 06:37:08;;;;;;;79.18;33.97;;;;;;;9.79;100.00;99747.59;6232411;28;20471;-83
2024/03/31 06:40:10;;;;;;;79.38;33.42;;;;;;;9.81;100.00;99746.56;6242463;28;20046;-80
2024/03/31 06:43:13;;;;;;;67.13;31.70;;;;;;;9.85;100.00;99749.81;6235507;28;20056;-83
2024/03/31 06:46:14;;;;;;;66.63;33.95;;;;;;;9.84;100.00;99759.47;6232619;28;20048;-82
2024/03/31 06:49:15;;;;;;;65.35;29.48;;;;;;;9.93;100.00;99760.66;6243173;28;20052;-83
2024/03/31 06:52:16;;;;;;;62.88;29.80;;;;;;;9.95;100.00;99758.78;6246029;28;20053;-80
2024/03/31 06:55:16;;;;;;;72.68;34.58;;;;;;;9.92;100.00;99764.22;6248723;28;20053;-81
2024/03/31 06:58:19;;;;;;;64.90;32.47;;;;;;;9.90;100.00;99761.72;6251300;28;20057;-81
2024/03/31 07:01:20;;;;;;;64.60;29.63;;;;;;;9.93;100.00;99768.53;6251214;28;20053;-80
2024/03/31 07:04:21;;;;;;;63.63;30.92;;;;;;;9.95;100.00;99776.28;6243108;28;20049;-81
2024/03/31 07:07:22;;;;;;;70.47;30.67;;;;;;;9.97;100.00;99771.78;6236631;28;20053;-80
2024/03/31 07:10:23;;;;;;;61.17;29.23;;;;;;;9.98;100.00;99776.94;6249015;28;20453;-80
2024/03/31 07:13:26;;;;;;;72.65;35.22;;;;;;;10.04;100.00;99773.06;6250482;28;20045;-80
2024/03/31 07:16:27;;;;;;;66.25;29.30;;;;;;;10.02;100.00;99767.91;6241175;28;20422;-80
2024/03/31 07:19:28;;;;;;;60.45;29.35;;;;;;;10.01;100.00;99766.22;6243728;28;20445;-80
2024/03/31 07:22:29;;;;;;;63.97;27.83;;;;;;;10.05;100.00;99772.13;6241486;28;20076;-80
2024/03/31 07:25:30;;;;;;;64.18;29.83;;;;;;;10.00;100.00;99768.97;6243507;28;20041;-79
2024/03/31 07:28:32;;;;;;;59.50;29.42;;;;;;;10.00;100.00;99774.22;6248987;28;20060;-79
2024/03/31 07:31:34;;;;;;;55.45;26.48;;;;;;;10.01;100.00;99781.97;6250421;28;20053;-80
2024/03/31 07:34:34;;;;;;;58.17;28.70;;;;;;;10.01;100.00;99774.09;6242724;28;20052;-78
2024/03/31 07:37:36;;;;;;;61.63;30.15;;;;;;;9.98;100.00;99776.09;6250052;28;20041;-79
2024/03/31 07:40:36;;;;;;;59.50;29.65;;;;;;;10.00;100.00;99775.06;6250235;28;20832;-80
2024/03/31 07:43:39;;;;;;;56.50;27.05;;;;;;;9.88;100.00;99775.84;6230324;28;20088;-78
2024/03/31 07:46:39;;;;;;;55.90;26.33;;;;;;;9.88;100.00;99779.31;6220667;28;20446;-80
2024/03/31 07:49:41;;;;;;;55.33;26.75;;;;;;;9.95;100.00;99782.41;6227416;28;20093;-79
2024/03/31 07:52:42;;;;;;;53.03;24.95;;;;;;;9.97;100.00;99777.88;6226839;28;20192;-79
2024/03/31 07:55:44;;;;;;;50.88;26.33;;;;;;;9.99;100.00;99793.50;6227918;28;20053;-79
2024/03/31 07:58:45;;;;;;;51.60;27.02;;;;;;;10.05;100.00;99798.38;6217577;28;20057;-80
2024/03/31 08:01:47;;;;;;;49.78;25.20;;;;;;;9.82;100.00;99802.50;6216186;28;20057;-79
2024/03/31 08:04:48;;;;;;;49.00;23.77;;;;;;;9.91;100.00;99821.13;6227302;28;20054;-79
2024/03/31 08:07:49;;;;;;;51.45;23.20;;;;;;;9.96;100.00;99823.44;6239087;28;20041;-79
2024/03/31 08:10:50;;;;;;;49.15;24.08;;;;;;;10.02;100.00;99822.19;6238350;28;20053;-79
2024/03/31 08:13:53;;;;;;;50.22;23.75;;;;;;;10.06;100.00;99818.44;6249096;28;20049;-79
2024/03/31 08:16:53;;;;;;;46.78;24.13;;;;;;;10.10;100.00;99812.88;6249747;28;20041;-79
2024/03/31 08:19:54;;;;;;;42.00;21.65;;;;;;;10.09;100.00;99818.22;6250018;28;20049;-79
2024/03/31 08:22:56;;;;;;;48.80;21.45;;;;;;;10.12;100.00;99820.63;6246484;28;20442;-78
2024/03/31 08:25:56;;;;;;;42.30;22.55;;;;;;;10.14;100.00;99824.84;6231009;28;20042;-79
2024/03/31 08:28:59;;;;;;;45.95;21.40;;;;;;;10.18;100.00;99825.50;6244469;28;20050;-80
2024/03/31 08:31:59;;;;;;;38.00;20.15;;;;;;;10.24;100.00;99819.84;6237429;28;20041;-80
2024/03/31 08:35:01;;;;;;;47.75;23.50;;;;;;;10.23;100.00;99818.16;6219616;28;20077;-79
2024/03/31 08:38:01;;;;;;;50.28;23.42;;;;;;;10.28;100.00;99829.22;6233469;28;20045;-80
2024/03/31 08:41:06;;;;;;;51.67;25.95;;;;;;;10.30;100.00;99824.69;6240120;28;20084;-79
2024/03/31 08:44:14;;;;;;;64.60;30.17;;;;;;;10.30;100.00;99829.94;6246190;28;20048;-78
2024/03/31 08:47:20;;;;;;;57.33;27.63;;;;;;;10.34;100.00;99833.22;6229010;28;20049;-79
2024/03/31 08:50:21;;;;;;;58.17;30.10;;;;;;;10.33;100.00;99832.38;6243545;28;20050;-79
2024/03/31 08:53:23;;;;;;;59.65;26.67;;;;;;;10.38;100.00;99832.06;6242871;28;20059;-79
2024/03/31 08:56:24;;;;;;;58.78;29.17;;;;;;;10.39;100.00;99841.63;6244560;28;20052;-79
2024/03/31 08:59:27;;;;;;;57.63;29.33;;;;;;;10.38;100.00;99835.53;6243857;28;20053;-79
2024/03/31 09:02:28;;;;;;;57.88;27.10;;;;;;;10.42;100.00;99836.16;6242338;28;20045;-79
2024/03/31 09:05:28;;;;;;;50.88;25.08;;;;;;;10.49;100.00;99833.97;6229512;28;20049;-79
2024/03/31 09:08:30;;;;;;;62.88;28.52;;;;;;;10.49;100.00;99826.94;6238565;28;20048;-80
2024/03/31 09:11:31;;;;;;;57.00;27.25;;;;;;;10.53;100.00;99820.50;6233055;28;20053;-79
2024/03/31 09:14:34;;;;;;;58.63;28.50;;;;;;;10.56;100.00;99812.44;6222978;28;20446;-80
2024/03/31 09:17:35;;;;;;;61.42;29.05;;;;;;;10.60;100.00;99805.19;6241690;28;20049;-80
2024/03/31 09:20:36;;;;;;;60.47;31.65;;;;;;;10.74;100.00;99806.88;6242006;28;20050;-80
2024/03/31 09:23:37;;;;;;;54.53;27.63;;;;;;;10.86;100.00;99798.97;6226723;28;20047;-79
2024/03/31 09:26:39;;;;;;;65.93;30.92;;;;;;;10.77;100.00;99802.25;6237913;28;20049;-79
2024/03/31 09:29:41;;;;;;;58.85;28.95;;;;;;;10.81;100.00;99789.72;6211886;28;20060;-80
2024/03/31 09:32:43;;;;;;;55.03;27.48;;;;;;;10.85;100.00;99785.91;6236366;28;20459;-80
2024/03/31 09:35:44;;;;;;;50.10;26.85;;;;;;;10.94;100.00;99793.16;6228823;28;20454;-83
2024/03/31 09:38:46;;;;;;;59.50;26.30;;;;;;;10.79;100.00;99789.81;6229136;28;20505;-83
2024/03/31 09:41:49;;;;;;;43.25;24.45;;;;;;;10.80;100.00;99783.63;6230381;28;20046;-84
2024/03/31 09:44:52;;;;;;;43.35;23.50;;;;;;;10.89;100.00;99782.13;6235139;28;20050;-83
2024/03/31 09:47:55;;;;;;;45.40;23.60;;;;;;;10.93;100.00;99786.22;6229170;28;20046;-82
2024/03/31 09:51:01;;;;;;;43.90;22.70;;;;;;;11.00;100.00;99781.41;6227507;28;20462;-83
2024/03/31 09:54:07;;;;;;;46.17;22.02;;;;;;;11.08;100.00;99789.56;6237155;28;20053;-82
2024/03/31 09:57:12;;;;;;;38.90;20.88;;;;;;;11.10;100.00;99787.69;6230187;28;20057;-82
2024/03/31 10:00:15;;;;;;;35.15;19.80;;;;;;;11.20;100.00;99785.22;6227457;28;20050;-82
2024/03/31 10:03:25;;;;;;;38.08;22.42;;;;;;;11.11;100.00;99784.09;6227654;28;20046;-83
2024/03/31 10:06:25;;;;;;;40.67;20.63;;;;;;;11.03;100.00;99786.41;6228644;28;20053;-81
2024/03/31 10:09:27;;;;;;;37.05;20.40;;;;;;;11.04;100.00;99781.06;6227867;28;20046;-82
2024/03/31 10:12:28;;;;;;;37.95;20.38;;;;;;;11.05;100.00;99789.78;6231983;28;20064;-82
2024/03/31 10:15:33;;;;;;;33.85;19.67;;;;;;;11.02;100.00;99779.47;6233229;28;20176;-81
2024/03/31 10:18:34;;;;;;;36.13;19.08;;;;;;;11.07;100.00;99778.22;6235828;28;20445;-83
2024/03/31 10:21:36;;;;;;;38.65;21.83;;;;;;;10.96;100.00;99770.25;6228040;28;20052;-82
2024/03/31 10:24:39;;;;;;;37.70;19.58;;;;;;;11.02;100.00;99768.97;6248206;28;20053;-82
2024/03/31 10:27:43;;;;;;;32.08;19.38;;;;;;;11.00;100.00;99770.88;6246418;28;20057;-81
2024/03/31 10:30:46;;;;;;;38.95;19.23;;;;;;;11.09;100.00;99755.28;6224291;28;20054;-84
2024/03/31 10:33:46;;;;;;;33.42;18.73;;;;;;;11.24;100.00;99739.34;6227785;28;20052;-84
2024/03/31 10:36:48;;;;;;;39.53;20.50;;;;;;;11.35;100.00;99732.34;6228214;28;20050;-84
2024/03/31 10:39:49;;;;;;;38.42;21.88;;;;;;;11.39;100.00;99730.34;6227684;28;20327;-84
2024/03/31 10:42:52;;;;;;;35.85;21.27;;;;;;;11.56;100.00;99719.44;6228532;28;20053;-85
2024/03/31 10:45:54;;;;;;;36.00;20.17;;;;;;;11.66;100.00;99707.25;6228175;28;20057;-84
2024/03/31 10:48:55;;;;;;;39.63;21.65;;;;;;;11.78;100.00;99713.41;6232857;28;20049;-82
2024/03/31 10:51:58;;;;;;;36.33;18.85;;;;;;;11.85;100.00;99716.44;6225607;28;20056;-72
2024/03/31 10:54:59;;;;;;;38.33;20.65;;;;;;;11.79;100.00;99706.34;6230309;28;20045;-88
2024/03/31 10:58:02;;;;;;;32.53;17.48;;;;;;;11.92;100.00;99709.78;6228395;28;20343;-87
2024/03/31 11:01:03;;;;;;;39.70;19.60;;;;;;;12.01;100.00;99703.81;6239174;28;20053;-87
2024/03/31 11:04:17;;;;;;;35.67;19.55;;;;;;;12.12;100.00;99697.72;6252757;28;20045;-87
2024/03/31 11:07:18;;;;;;;35.55;17.95;;;;;;;12.15;100.00;99703.59;6252556;28;20053;-87
2024/03/31 11:10:20;;;;;;;32.45;17.15;;;;;;;12.30;100.00;99696.28;6252751;28;20060;-87
2024/03/31 11:13:21;;;;;;;29.05;17.40;;;;;;;12.58;100.00;99692.38;6253324;28;20132;-87
2024/03/31 11:16:24;;;;;;;37.90;18.70;;;;;;;12.71;100.00;99700.13;6252448;28;20499;-86
2024/03/31 11:19:26;;;;;;;35.00;17.10;;;;;;;12.87;100.00;99690.06;6245864;28;20362;-86
2024/03/31 11:22:28;;;;;;;30.65;18.13;;;;;;;13.12;100.00;99686.28;6252478;28;20046;-86
2024/03/31 11:25:29;;;;;;;31.00;16.70;;;;;;;13.21;100.00;99693.44;6251095;28;20355;-87
2024/03/31 11:28:32;;;;;;;23.63;13.85;;;;;;;13.16;100.00;99695.63;6245318;28;20041;-87
2024/03/31 11:31:36;;;;;;;28.13;15.18;;;;;;;13.37;100.00;99690.44;6250941;28;20037;-86
2024/03/31 11:34:38;;;;;;;24.70;13.13;;;;;;;13.57;100.00;99693.22;6252296;28;20350;-86
2024/03/31 11:37:39;;;;;;;25.85;13.40;;;;;;;13.71;100.00;99692.91;6252322;28;20088;-85
2024/03/31 11:40:41;;;;;;;21.42;12.20;;;;;;;13.84;100.00;99692.75;6251878;28;20052;-86
2024/03/31 11:43:42;;;;;;;20.23;11.82;;;;;;;14.00;100.00;99687.00;6227612;28;20045;-86
2024/03/31 11:46:47;;;;;;;17.27;10.13;;;;;;;14.19;100.00;99687.13;6236095;28;20045;-87
2024/03/31 11:49:49;;;;;;;23.42;11.02;;;;;;;14.39;100.00;99688.03;6252600;28;20068;-84
2024/03/31 11:52:50;;;;;;;21.10;10.73;;;;;;;14.28;100.00;99686.34;6251732;28;20052;-86
2024/03/31 11:55:51;;;;;;;23.52;12.15;;;;;;;14.20;100.00;99679.06;6252370;28;20346;-86
2024/03/31 11:58:53;;;;;;;20.48;11.45;;;;;;;14.30;100.00;99681.75;6245368;28;20049;-86
2024/03/31 12:01:59;;;;;;;29.63;12.27;;;;;;;14.34;100.00;99683.16;6252135;28;20049;-86
2024/03/31 12:05:00;;;;;;;23.10;12.05;;;;;;;14.49;100.00;99677.53;6256167;28;20049;-85
2024/03/31 12:08:00;;;;;;;20.02;11.40;;;;;;;14.90;100.00;99673.94;6256119;28;20052;-83
2024/03/31 12:11:02;;;;;;;22.38;11.05;;;;;;;15.20;100.00;99671.19;6255347;28;20057;-84
2024/03/31 12:14:04;;;;;;;21.48;11.68;;;;;;;15.41;100.00;99667.59;6252727;28;20054;-84
2024/03/31 12:17:07;;;;;;;19.27;10.57;;;;;;;15.72;100.00;99670.97;6256071;28;20346;-84
2024/03/31 12:20:08;;;;;;;20.83;10.20;;;;;;;15.75;100.00;99664.53;6256553;28;20464;-84
2024/03/31 12:23:10;;;;;;;21.55;10.38;;;;;;;15.81;100.00;99664.81;6256128;28;20053;-83
2024/03/31 12:26:11;;;;;;;18.33;10.48;;;;;;;16.15;100.00;99656.34;6256304;28;20049;-85
2024/03/31 12:29:19;;;;;;;20.23;10.00;;;;;;;16.31;100.00;99664.53;6256125;28;20056;-86
2024/03/31 12:32:22;;;;;;;17.67;9.25;;;;;;;16.37;100.00;99661.28;6255998;28;20060;-85
2024/03/31 12:35:22;;;;;;;16.25;9.52;;;;;;;16.51;100.00;99659.97;6256038;28;20076;-85
2024/03/31 12:38:25;;;;;;;16.77;9.32;;;;;;;16.62;100.00;99658.94;6246789;28;20095;-84
2024/03/31 12:41:25;;;;;;;15.38;9.30;;;;;;;16.91;100.00;99653.53;6255096;28;20327;-84
2024/03/31 12:44:27;;;;;;;14.10;8.20;;;;;;;16.91;100.00;99646.41;6256069;28;20049;-85
2024/03/31 12:47:28;;;;;;;15.50;8.05;;;;;;;16.76;100.00;99658.50;6255799;28;20045;-86
2024/03/31 12:50:30;;;;;;;18.98;8.93;;;;;;;17.14;100.00;99646.78;6255631;28;20069;-84
2024/03/31 12:53:31;;;;;;;17.17;8.98;;;;;;;17.07;100.00;99640.41;6255841;28;20060;-85
2024/03/31 12:56:32;;;;;;;18.67;7.72;;;;;;;16.74;100.00;99632.09;6255128;28;20450;-83
2024/03/31 12:59:37;;;;;;;17.10;7.68;;;;;;;16.53;100.00;99636.78;6255313;28;20427;-83
2024/03/31 13:02:41;;;;;;;24.35;9.70;;;;;;;16.30;100.00;99638.97;6254181;28;20049;-84
2024/03/31 13:05:43;;;;;;;21.77;7.82;;;;;;;16.32;100.00;99634.38;6254947;28;20054;-83
2024/03/31 13:08:44;;;;;;;15.77;7.75;;;;;;;16.75;100.00;99622.31;6239057;28;20046;-84
2024/03/31 13:11:46;;;;;;;19.05;8.75;;;;;;;17.12;100.00;99616.06;6254502;28;20049;-84
2024/03/31 13:14:47;;;;;;;13.65;6.60;;;;;;;16.73;100.00;99617.19;6246494;28;20132;-84
2024/03/31 13:17:50;;;;;;;14.68;6.57;;;;;;;17.02;100.00;99605.53;6243727;28;20045;-84
2024/03/31 13:20:51;;;;;;;12.77;7.20;;;;;;;17.28;100.00;99620.69;6236698;28;20053;-77
2024/03/31 13:23:52;;;;;;;14.93;6.47;;;;;;;17.02;100.00;99620.63;6252551;28;20057;-77
2024/03/31 13:26:53;;;;;;;9.35;5.05;;;;;;;17.07;100.00;99613.03;6251553;28;20072;-77
2024/03/31 13:29:54;;;;;;;14.18;6.53;;;;;;;16.77;100.00;99616.88;6239972;28;20049;-77
2024/03/31 13:32:57;;;;;;;10.27;5.15;;;;;;;16.67;100.00;99612.44;6253056;28;20458;-77
2024/03/31 13:35:58;;;;;;;15.00;6.10;;;;;;;16.53;100.00;99606.78;6247716;28;20128;-77
2024/03/31 13:38:59;;;;;;;9.25;5.30;;;;;;;16.67;100.00;99601.00;6252996;28;20049;-76
2024/03/31 13:42:00;;;;;;;9.65;5.65;;;;;;;16.59;100.00;99603.56;6252578;28;20054;-77
2024/03/31 13:45:01;;;;;;;13.50;6.47;;;;;;;16.56;100.00;99601.19;6251356;28;20053;-79
2024/03/31 13:48:03;;;;;;;13.13;6.07;;;;;;;16.56;100.00;99609.16;6252479;28;20054;-76
2024/03/31 13:51:04;;;;;;;15.55;5.75;;;;;;;16.33;100.00;99601.59;6250567;28;20053;-79